sensor_id;sensor_type;location;lat;lon;timestamp;P1;durP1;ratioP1;P2;durP2;ratioP2
67272;SDS011;54190;49.770;9.250;2023-03-01T00:01:07;16.00;;;10.50;;
67272;SDS011;54190;49.770;9.250;2023-03-01T00:03:35;17.80;;;10.53;;
67272;SDS011;54190;49.770;9.250;2023-03-01T00:06:01;15.97;;;9.63;;
67272;SDS011;54190;49.770;9.250;2023-03-01T00:08:27;16.63;;;9.70;;
67272;SDS011;54190;49.770;9.250;2023-03-01T00:11:06;20.03;;;9.97;;
67272;SDS011;54190;49.770;9.250;2023-03-01T00:13:35;16.30;;;10.00;;
67272;SDS011;54190;49.770;9.250;2023-03-01T00:16:08;14.00;;;8.77;;
67272;SDS011;54190;49.770;9.250;2023-03-01T00:18:36;19.53;;;9.40;;
67272;SDS011;54190;49.770;9.250;2023-03-01T00:21:02;20.97;;;9.87;;
67272;SDS011;54190;49.770;9.250;2023-03-01T00:23:27;20.57;;;9.93;;
67272;SDS011;54190;49.770;9.250;2023-03-01T00:25:53;17.33;;;9.77;;
67272;SDS011;54190;49.770;9.250;2023-03-01T00:28:20;18.13;;;9.80;;
67272;SDS011;54190;49.770;9.250;2023-03-01T00:30:45;17.30;;;9.77;;
67272;SDS011;54190;49.770;9.250;2023-03-01T00:33:11;18.03;;;9.00;;
67272;SDS011;54190;49.770;9.250;2023-03-01T00:35:37;18.33;;;10.37;;
67272;SDS011;54190;49.770;9.250;2023-03-01T00:38:03;16.40;;;9.87;;
67272;SDS011;54190;49.770;9.250;2023-03-01T00:40:30;16.80;;;10.00;;
67272;SDS011;54190;49.770;9.250;2023-03-01T00:42:57;14.40;;;9.07;;
67272;SDS011;54190;49.770;9.250;2023-03-01T00:45:23;16.50;;;9.97;;
67272;SDS011;54190;49.770;9.250;2023-03-01T00:47:50;18.57;;;10.57;;
67272;SDS011;54190;49.770;9.250;2023-03-01T00:50:16;19.20;;;10.83;;
67272;SDS011;54190;49.770;9.250;2023-03-01T00:52:43;16.03;;;10.00;;
67272;SDS011;54190;49.770;9.250;2023-03-01T00:55:09;18.30;;;10.03;;
67272;SDS011;54190;49.770;9.250;2023-03-01T00:57:35;18.60;;;10.57;;
67272;SDS011;54190;49.770;9.250;2023-03-01T01:00:01;19.50;;;10.67;;
67272;SDS011;54190;49.770;9.250;2023-03-01T01:02:29;17.53;;;10.50;;
67272;SDS011;54190;49.770;9.250;2023-03-01T01:04:55;21.93;;;10.83;;
67272;SDS011;54190;49.770;9.250;2023-03-01T01:07:20;16.20;;;10.13;;
67272;SDS011;54190;49.770;9.250;2023-03-01T01:09:46;17.20;;;10.43;;
67272;SDS011;54190;49.770;9.250;2023-03-01T01:12:11;15.20;;;10.50;;
67272;SDS011;54190;49.770;9.250;2023-03-01T01:14:37;17.23;;;10.67;;
67272;SDS011;54190;49.770;9.250;2023-03-01T01:17:03;15.37;;;10.47;;
67272;SDS011;54190;49.770;9.250;2023-03-01T01:19:29;17.27;;;10.40;;
67272;SDS011;54190;49.770;9.250;2023-03-01T01:21:56;18.40;;;9.70;;
67272;SDS011;54190;49.770;9.250;2023-03-01T01:24:21;20.10;;;11.30;;
67272;SDS011;54190;49.770;9.250;2023-03-01T01:26:47;18.57;;;11.20;;
67272;SDS011;54190;49.770;9.250;2023-03-01T01:29:13;20.50;;;11.57;;
67272;SDS011;54190;49.770;9.250;2023-03-01T01:31:39;16.07;;;10.37;;
67272;SDS011;54190;49.770;9.250;2023-03-01T01:34:07;18.27;;;11.13;;
67272;SDS011;54190;49.770;9.250;2023-03-01T01:36:36;16.97;;;10.23;;
67272;SDS011;54190;49.770;9.250;2023-03-01T01:39:02;19.87;;;11.50;;
67272;SDS011;54190;49.770;9.250;2023-03-01T01:41:29;16.37;;;10.80;;
67272;SDS011;54190;49.770;9.250;2023-03-01T01:44:12;18.63;;;10.93;;
67272;SDS011;54190;49.770;9.250;2023-03-01T01:46:52;20.50;;;11.00;;
67272;SDS011;54190;49.770;9.250;2023-03-01T01:51:49;16.67;;;10.07;;
67272;SDS011;54190;49.770;9.250;2023-03-01T01:54:22;21.07;;;11.73;;
67272;SDS011;54190;49.770;9.250;2023-03-01T01:56:53;19.17;;;11.73;;
67272;SDS011;54190;49.770;9.250;2023-03-01T01:59:23;18.03;;;11.20;;
67272;SDS011;54190;49.770;9.250;2023-03-01T02:01:54;21.90;;;12.83;;
67272;SDS011;54190;49.770;9.250;2023-03-01T02:04:20;22.07;;;12.50;;
67272;SDS011;54190;49.770;9.250;2023-03-01T02:06:51;20.43;;;12.27;;
67272;SDS011;54190;49.770;9.250;2023-03-01T02:09:23;21.27;;;12.13;;
67272;SDS011;54190;49.770;9.250;2023-03-01T02:11:50;21.60;;;11.70;;
67272;SDS011;54190;49.770;9.250;2023-03-01T02:14:17;24.70;;;11.80;;
67272;SDS011;54190;49.770;9.250;2023-03-01T02:16:43;19.50;;;10.87;;
67272;SDS011;54190;49.770;9.250;2023-03-01T02:19:09;19.10;;;11.57;;
67272;SDS011;54190;49.770;9.250;2023-03-01T02:21:53;18.23;;;10.60;;
67272;SDS011;54190;49.770;9.250;2023-03-01T02:24:32;18.20;;;10.53;;
67272;SDS011;54190;49.770;9.250;2023-03-01T02:27:00;19.37;;;11.50;;
67272;SDS011;54190;49.770;9.250;2023-03-01T02:29:26;17.30;;;10.37;;
67272;SDS011;54190;49.770;9.250;2023-03-01T02:31:53;23.90;;;10.70;;
67272;SDS011;54190;49.770;9.250;2023-03-01T02:34:22;16.93;;;10.23;;
67272;SDS011;54190;49.770;9.250;2023-03-01T02:36:57;22.40;;;11.93;;
67272;SDS011;54190;49.770;9.250;2023-03-01T02:39:46;22.93;;;9.87;;
67272;SDS011;54190;49.770;9.250;2023-03-01T02:42:20;20.50;;;10.87;;
67272;SDS011;54190;49.770;9.250;2023-03-01T02:44:49;19.73;;;9.77;;
67272;SDS011;54190;49.770;9.250;2023-03-01T02:47:15;16.33;;;10.07;;
67272;SDS011;54190;49.770;9.250;2023-03-01T02:49:40;18.57;;;11.30;;
67272;SDS011;54190;49.770;9.250;2023-03-01T02:57:40;16.67;;;10.50;;
67272;SDS011;54190;49.770;9.250;2023-03-01T03:00:09;16.50;;;10.00;;
67272;SDS011;54190;49.770;9.250;2023-03-01T03:02:44;16.93;;;10.70;;
67272;SDS011;54190;49.770;9.250;2023-03-01T03:05:18;19.00;;;10.43;;
67272;SDS011;54190;49.770;9.250;2023-03-01T03:07:46;17.50;;;10.10;;
67272;SDS011;54190;49.770;9.250;2023-03-01T03:10:14;16.90;;;10.03;;
67272;SDS011;54190;49.770;9.250;2023-03-01T03:12:43;21.53;;;12.03;;
67272;SDS011;54190;49.770;9.250;2023-03-01T03:15:13;17.00;;;10.07;;
67272;SDS011;54190;49.770;9.250;2023-03-01T03:17:40;17.47;;;10.10;;
67272;SDS011;54190;49.770;9.250;2023-03-01T03:20:08;19.00;;;11.00;;
67272;SDS011;54190;49.770;9.250;2023-03-01T03:22:39;21.13;;;11.67;;
67272;SDS011;54190;49.770;9.250;2023-03-01T03:25:08;20.80;;;11.37;;
67272;SDS011;54190;49.770;9.250;2023-03-01T03:27:39;18.80;;;10.50;;
67272;SDS011;54190;49.770;9.250;2023-03-01T03:30:06;17.43;;;10.83;;
67272;SDS011;54190;49.770;9.250;2023-03-01T03:32:36;18.43;;;10.47;;
67272;SDS011;54190;49.770;9.250;2023-03-01T03:35:05;17.67;;;11.20;;
67272;SDS011;54190;49.770;9.250;2023-03-01T03:37:40;18.77;;;11.67;;
67272;SDS011;54190;49.770;9.250;2023-03-01T03:40:25;20.73;;;12.50;;
67272;SDS011;54190;49.770;9.250;2023-03-01T03:42:52;21.73;;;10.57;;
67272;SDS011;54190;49.770;9.250;2023-03-01T03:45:17;20.07;;;11.67;;
67272;SDS011;54190;49.770;9.250;2023-03-01T03:47:44;17.17;;;10.73;;
67272;SDS011;54190;49.770;9.250;2023-03-01T03:50:10;21.07;;;12.00;;
67272;SDS011;54190;49.770;9.250;2023-03-01T03:52:37;17.70;;;10.40;;
67272;SDS011;54190;49.770;9.250;2023-03-01T03:55:03;16.97;;;10.43;;
67272;SDS011;54190;49.770;9.250;2023-03-01T03:57:39;17.57;;;9.80;;
67272;SDS011;54190;49.770;9.250;2023-03-01T04:00:06;17.93;;;10.90;;
67272;SDS011;54190;49.770;9.250;2023-03-01T04:02:41;20.73;;;11.50;;
67272;SDS011;54190;49.770;9.250;2023-03-01T04:05:07;21.20;;;11.40;;
67272;SDS011;54190;49.770;9.250;2023-03-01T04:07:34;22.77;;;11.53;;
67272;SDS011;54190;49.770;9.250;2023-03-01T04:10:02;22.60;;;12.93;;
67272;SDS011;54190;49.770;9.250;2023-03-01T04:12:29;22.63;;;11.33;;
67272;SDS011;54190;49.770;9.250;2023-03-01T04:14:54;17.90;;;9.83;;
67272;SDS011;54190;49.770;9.250;2023-03-01T04:17:20;17.73;;;10.90;;
67272;SDS011;54190;49.770;9.250;2023-03-01T04:19:45;18.50;;;11.17;;
67272;SDS011;54190;49.770;9.250;2023-03-01T04:22:14;21.30;;;10.97;;
67272;SDS011;54190;49.770;9.250;2023-03-01T04:24:42;19.93;;;11.67;;
67272;SDS011;54190;49.770;9.250;2023-03-01T04:27:08;17.50;;;11.20;;
67272;SDS011;54190;49.770;9.250;2023-03-01T04:29:34;16.40;;;9.93;;
67272;SDS011;54190;49.770;9.250;2023-03-01T04:32:00;16.37;;;9.83;;
67272;SDS011;54190;49.770;9.250;2023-03-01T04:34:25;18.90;;;11.67;;
67272;SDS011;54190;49.770;9.250;2023-03-01T04:36:54;19.37;;;11.97;;
67272;SDS011;54190;49.770;9.250;2023-03-01T04:39:20;17.07;;;10.60;;
67272;SDS011;54190;49.770;9.250;2023-03-01T04:41:45;18.17;;;10.57;;
67272;SDS011;54190;49.770;9.250;2023-03-01T04:44:11;17.57;;;10.20;;
67272;SDS011;54190;49.770;9.250;2023-03-01T04:46:38;18.37;;;11.03;;
67272;SDS011;54190;49.770;9.250;2023-03-01T04:49:04;21.80;;;12.23;;
67272;SDS011;54190;49.770;9.250;2023-03-01T04:51:30;20.70;;;11.17;;
67272;SDS011;54190;49.770;9.250;2023-03-01T04:53:57;23.43;;;12.27;;
67272;SDS011;54190;49.770;9.250;2023-03-01T04:56:23;18.67;;;11.93;;
67272;SDS011;54190;49.770;9.250;2023-03-01T04:58:49;15.93;;;10.00;;
67272;SDS011;54190;49.770;9.250;2023-03-01T05:01:18;22.83;;;11.67;;
67272;SDS011;54190;49.770;9.250;2023-03-01T05:03:49;19.67;;;11.30;;
67272;SDS011;54190;49.770;9.250;2023-03-01T05:06:16;21.10;;;12.27;;
67272;SDS011;54190;49.770;9.250;2023-03-01T05:08:43;23.60;;;13.67;;
67272;SDS011;54190;49.770;9.250;2023-03-01T05:11:10;21.50;;;12.60;;
67272;SDS011;54190;49.770;9.250;2023-03-01T05:13:36;22.53;;;12.97;;
67272;SDS011;54190;49.770;9.250;2023-03-01T05:16:03;23.00;;;12.80;;
67272;SDS011;54190;49.770;9.250;2023-03-01T05:18:30;22.60;;;12.67;;
67272;SDS011;54190;49.770;9.250;2023-03-01T05:21:04;18.50;;;11.63;;
67272;SDS011;54190;49.770;9.250;2023-03-01T05:23:32;23.43;;;13.87;;
67272;SDS011;54190;49.770;9.250;2023-03-01T05:25:59;25.93;;;14.00;;
67272;SDS011;54190;49.770;9.250;2023-03-01T05:28:29;26.00;;;12.07;;
67272;SDS011;54190;49.770;9.250;2023-03-01T05:30:55;19.30;;;11.57;;
67272;SDS011;54190;49.770;9.250;2023-03-01T05:33:21;23.73;;;14.03;;
67272;SDS011;54190;49.770;9.250;2023-03-01T05:35:47;18.20;;;11.27;;
67272;SDS011;54190;49.770;9.250;2023-03-01T05:38:14;15.63;;;9.20;;
67272;SDS011;54190;49.770;9.250;2023-03-01T05:40:41;18.70;;;10.73;;
67272;SDS011;54190;49.770;9.250;2023-03-01T05:43:09;18.90;;;10.13;;
67272;SDS011;54190;49.770;9.250;2023-03-01T05:45:35;21.47;;;11.80;;
67272;SDS011;54190;49.770;9.250;2023-03-01T05:48:03;17.83;;;9.97;;
67272;SDS011;54190;49.770;9.250;2023-03-01T05:50:32;17.77;;;10.07;;
67272;SDS011;54190;49.770;9.250;2023-03-01T05:53:03;21.00;;;10.90;;
67272;SDS011;54190;49.770;9.250;2023-03-01T05:55:35;19.83;;;11.20;;
67272;SDS011;54190;49.770;9.250;2023-03-01T05:58:02;20.67;;;11.00;;
67272;SDS011;54190;49.770;9.250;2023-03-01T06:00:30;23.67;;;12.03;;
67272;SDS011;54190;49.770;9.250;2023-03-01T06:02:56;17.57;;;10.63;;
67272;SDS011;54190;49.770;9.250;2023-03-01T06:05:22;22.83;;;11.53;;
67272;SDS011;54190;49.770;9.250;2023-03-01T06:07:49;18.13;;;11.30;;
67272;SDS011;54190;49.770;9.250;2023-03-01T06:10:15;17.30;;;11.07;;
67272;SDS011;54190;49.770;9.250;2023-03-01T06:12:42;17.33;;;10.37;;
67272;SDS011;54190;49.770;9.250;2023-03-01T06:15:08;18.13;;;11.03;;
67272;SDS011;54190;49.770;9.250;2023-03-01T06:17:36;18.50;;;12.30;;
67272;SDS011;54190;49.770;9.250;2023-03-01T06:20:08;20.63;;;11.47;;
67272;SDS011;54190;49.770;9.250;2023-03-01T06:22:36;17.33;;;11.00;;
67272;SDS011;54190;49.770;9.250;2023-03-01T06:25:02;17.60;;;10.77;;
67272;SDS011;54190;49.770;9.250;2023-03-01T06:27:28;20.47;;;11.97;;
67272;SDS011;54190;49.770;9.250;2023-03-01T06:29:54;20.70;;;10.80;;
67272;SDS011;54190;49.770;9.250;2023-03-01T06:32:20;21.83;;;11.90;;
67272;SDS011;54190;49.770;9.250;2023-03-01T06:34:45;19.80;;;11.87;;
67272;SDS011;54190;49.770;9.250;2023-03-01T06:37:11;23.10;;;12.20;;
67272;SDS011;54190;49.770;9.250;2023-03-01T06:39:37;20.60;;;12.30;;
67272;SDS011;54190;49.770;9.250;2023-03-01T06:42:04;18.67;;;11.67;;
67272;SDS011;54190;49.770;9.250;2023-03-01T06:44:29;19.33;;;11.40;;
67272;SDS011;54190;49.770;9.250;2023-03-01T06:46:56;20.90;;;11.73;;
67272;SDS011;54190;49.770;9.250;2023-03-01T06:49:21;22.40;;;13.30;;
67272;SDS011;54190;49.770;9.250;2023-03-01T06:51:47;21.60;;;12.60;;
67272;SDS011;54190;49.770;9.250;2023-03-01T06:54:13;23.20;;;13.10;;
67272;SDS011;54190;49.770;9.250;2023-03-01T06:56:39;22.23;;;12.00;;
67272;SDS011;54190;49.770;9.250;2023-03-01T06:59:04;20.40;;;12.10;;
67272;SDS011;54190;49.770;9.250;2023-03-01T07:01:30;21.60;;;11.40;;
67272;SDS011;54190;49.770;9.250;2023-03-01T07:03:56;21.97;;;11.10;;
67272;SDS011;54190;49.770;9.250;2023-03-01T07:06:22;21.40;;;11.10;;
67272;SDS011;54190;49.770;9.250;2023-03-01T07:08:48;18.80;;;11.27;;
67272;SDS011;54190;49.770;9.250;2023-03-01T07:11:14;18.67;;;10.40;;
67272;SDS011;54190;49.770;9.250;2023-03-01T07:13:40;17.23;;;11.47;;
67272;SDS011;54190;49.770;9.250;2023-03-01T07:16:06;20.30;;;11.47;;
67272;SDS011;54190;49.770;9.250;2023-03-01T07:18:32;18.87;;;11.30;;
67272;SDS011;54190;49.770;9.250;2023-03-01T07:20:58;15.97;;;10.60;;
67272;SDS011;54190;49.770;9.250;2023-03-01T07:23:29;20.83;;;11.13;;
67272;SDS011;54190;49.770;9.250;2023-03-01T07:25:55;17.00;;;10.07;;
67272;SDS011;54190;49.770;9.250;2023-03-01T07:28:24;19.87;;;10.87;;
67272;SDS011;54190;49.770;9.250;2023-03-01T07:30:50;20.00;;;10.70;;
67272;SDS011;54190;49.770;9.250;2023-03-01T07:33:16;19.83;;;10.33;;
67272;SDS011;54190;49.770;9.250;2023-03-01T07:35:42;15.70;;;10.53;;
67272;SDS011;54190;49.770;9.250;2023-03-01T07:38:07;18.90;;;11.20;;
67272;SDS011;54190;49.770;9.250;2023-03-01T07:40:33;22.83;;;12.23;;
67272;SDS011;54190;49.770;9.250;2023-03-01T07:43:00;22.20;;;11.20;;
67272;SDS011;54190;49.770;9.250;2023-03-01T07:45:26;18.80;;;11.50;;
67272;SDS011;54190;49.770;9.250;2023-03-01T07:47:53;19.60;;;11.23;;
67272;SDS011;54190;49.770;9.250;2023-03-01T07:50:19;22.87;;;12.70;;
67272;SDS011;54190;49.770;9.250;2023-03-01T07:52:46;18.30;;;10.10;;
67272;SDS011;54190;49.770;9.250;2023-03-01T07:55:13;22.60;;;11.83;;
67272;SDS011;54190;49.770;9.250;2023-03-01T07:57:39;19.90;;;10.07;;
67272;SDS011;54190;49.770;9.250;2023-03-01T08:00:05;21.17;;;11.70;;
67272;SDS011;54190;49.770;9.250;2023-03-01T08:02:37;17.00;;;10.70;;
67272;SDS011;54190;49.770;9.250;2023-03-01T08:05:03;19.50;;;11.43;;
67272;SDS011;54190;49.770;9.250;2023-03-01T08:07:29;19.10;;;12.07;;
67272;SDS011;54190;49.770;9.250;2023-03-01T08:09:54;20.70;;;10.80;;
67272;SDS011;54190;49.770;9.250;2023-03-01T08:12:20;17.53;;;10.13;;
67272;SDS011;54190;49.770;9.250;2023-03-01T08:14:46;20.70;;;10.60;;
67272;SDS011;54190;49.770;9.250;2023-03-01T08:17:13;20.10;;;10.93;;
67272;SDS011;54190;49.770;9.250;2023-03-01T08:19:39;16.60;;;10.40;;
67272;SDS011;54190;49.770;9.250;2023-03-01T08:22:05;17.07;;;10.80;;
67272;SDS011;54190;49.770;9.250;2023-03-01T08:24:30;19.53;;;11.77;;
67272;SDS011;54190;49.770;9.250;2023-03-01T08:26:56;17.73;;;11.37;;
67272;SDS011;54190;49.770;9.250;2023-03-01T08:29:22;19.50;;;11.43;;
67272;SDS011;54190;49.770;9.250;2023-03-01T08:31:49;21.90;;;12.13;;
67272;SDS011;54190;49.770;9.250;2023-03-01T08:34:16;21.33;;;12.90;;
67272;SDS011;54190;49.770;9.250;2023-03-01T08:36:43;20.97;;;11.60;;
67272;SDS011;54190;49.770;9.250;2023-03-01T08:39:10;21.27;;;13.20;;
67272;SDS011;54190;49.770;9.250;2023-03-01T08:41:38;18.97;;;12.00;;
67272;SDS011;54190;49.770;9.250;2023-03-01T08:44:04;20.13;;;12.90;;
67272;SDS011;54190;49.770;9.250;2023-03-01T08:46:35;22.13;;;12.27;;
67272;SDS011;54190;49.770;9.250;2023-03-01T08:49:13;21.93;;;12.43;;
67272;SDS011;54190;49.770;9.250;2023-03-01T08:51:40;18.00;;;12.00;;
67272;SDS011;54190;49.770;9.250;2023-03-01T08:54:07;21.87;;;13.40;;
67272;SDS011;54190;49.770;9.250;2023-03-01T08:56:37;20.80;;;12.33;;
67272;SDS011;54190;49.770;9.250;2023-03-01T08:59:03;19.20;;;11.70;;
67272;SDS011;54190;49.770;9.250;2023-03-01T09:01:29;18.13;;;11.77;;
67272;SDS011;54190;49.770;9.250;2023-03-01T09:03:55;20.10;;;12.20;;
67272;SDS011;54190;49.770;9.250;2023-03-01T09:06:21;21.10;;;12.33;;
67272;SDS011;54190;49.770;9.250;2023-03-01T09:08:47;20.77;;;12.50;;
67272;SDS011;54190;49.770;9.250;2023-03-01T09:11:18;18.17;;;11.53;;
67272;SDS011;54190;49.770;9.250;2023-03-01T09:13:46;21.80;;;13.00;;
67272;SDS011;54190;49.770;9.250;2023-03-01T09:16:13;20.50;;;12.80;;
67272;SDS011;54190;49.770;9.250;2023-03-01T09:18:41;21.00;;;12.60;;
67272;SDS011;54190;49.770;9.250;2023-03-01T09:21:08;21.80;;;12.90;;
67272;SDS011;54190;49.770;9.250;2023-03-01T09:23:36;26.83;;;12.20;;
67272;SDS011;54190;49.770;9.250;2023-03-01T09:26:06;24.07;;;13.80;;
67272;SDS011;54190;49.770;9.250;2023-03-01T09:28:34;21.27;;;13.47;;
67272;SDS011;54190;49.770;9.250;2023-03-01T09:31:00;19.77;;;12.20;;
67272;SDS011;54190;49.770;9.250;2023-03-01T09:33:27;25.30;;;12.70;;
67272;SDS011;54190;49.770;9.250;2023-03-01T09:35:57;20.40;;;12.20;;
67272;SDS011;54190;49.770;9.250;2023-03-01T09:38:23;22.20;;;13.90;;
67272;SDS011;54190;49.770;9.250;2023-03-01T09:40:49;21.57;;;12.80;;
67272;SDS011;54190;49.770;9.250;2023-03-01T09:46:07;22.10;;;13.03;;
67272;SDS011;54190;49.770;9.250;2023-03-01T09:48:43;21.90;;;14.43;;
67272;SDS011;54190;49.770;9.250;2023-03-01T09:51:17;22.67;;;13.87;;
67272;SDS011;54190;49.770;9.250;2023-03-01T09:53:47;25.17;;;13.57;;
67272;SDS011;54190;49.770;9.250;2023-03-01T09:59:25;20.57;;;13.70;;
67272;SDS011;54190;49.770;9.250;2023-03-01T10:02:05;22.87;;;14.10;;
67272;SDS011;54190;49.770;9.250;2023-03-01T10:04:45;20.20;;;13.83;;
67272;SDS011;54190;49.770;9.250;2023-03-01T10:10:02;24.97;;;14.87;;
67272;SDS011;54190;49.770;9.250;2023-03-01T10:12:35;22.30;;;13.70;;
67272;SDS011;54190;49.770;9.250;2023-03-01T10:15:11;21.60;;;14.20;;
67272;SDS011;54190;49.770;9.250;2023-03-01T10:20:42;23.57;;;14.33;;
67272;SDS011;54190;49.770;9.250;2023-03-01T10:23:16;19.20;;;13.60;;
67272;SDS011;54190;49.770;9.250;2023-03-01T10:25:44;23.37;;;13.90;;
67272;SDS011;54190;49.770;9.250;2023-03-01T10:28:29;21.20;;;13.70;;
67272;SDS011;54190;49.770;9.250;2023-03-01T10:31:04;24.57;;;14.00;;
67272;SDS011;54190;49.770;9.250;2023-03-01T10:33:37;25.40;;;14.17;;
67272;SDS011;54190;49.770;9.250;2023-03-01T10:36:05;23.97;;;13.93;;
67272;SDS011;54190;49.770;9.250;2023-03-01T10:38:31;21.77;;;12.70;;
67272;SDS011;54190;49.770;9.250;2023-03-01T10:41:18;21.10;;;13.30;;
67272;SDS011;54190;49.770;9.250;2023-03-01T10:43:49;21.03;;;14.00;;
67272;SDS011;54190;49.770;9.250;2023-03-01T10:46:30;23.83;;;14.03;;
67272;SDS011;54190;49.770;9.250;2023-03-01T10:51:45;20.90;;;13.60;;
67272;SDS011;54190;49.770;9.250;2023-03-01T10:56:46;20.97;;;14.30;;
67272;SDS011;54190;49.770;9.250;2023-03-01T11:02:16;20.93;;;13.30;;
67272;SDS011;54190;49.770;9.250;2023-03-01T11:05:01;24.20;;;14.33;;
67272;SDS011;54190;49.770;9.250;2023-03-01T11:07:48;29.60;;;15.60;;
67272;SDS011;54190;49.770;9.250;2023-03-01T11:10:16;23.20;;;14.07;;
67272;SDS011;54190;49.770;9.250;2023-03-01T11:12:51;23.10;;;13.83;;
67272;SDS011;54190;49.770;9.250;2023-03-01T11:15:22;22.83;;;13.93;;
67272;SDS011;54190;49.770;9.250;2023-03-01T11:17:53;23.07;;;14.20;;
67272;SDS011;54190;49.770;9.250;2023-03-01T11:22:57;24.33;;;15.33;;
67272;SDS011;54190;49.770;9.250;2023-03-01T11:25:35;22.13;;;13.83;;
67272;SDS011;54190;49.770;9.250;2023-03-01T11:28:03;23.20;;;12.63;;
67272;SDS011;54190;49.770;9.250;2023-03-01T11:30:39;24.10;;;13.17;;
67272;SDS011;54190;49.770;9.250;2023-03-01T11:33:33;20.60;;;13.70;;
67272;SDS011;54190;49.770;9.250;2023-03-01T11:36:13;19.93;;;12.37;;
67272;SDS011;54190;49.770;9.250;2023-03-01T11:38:53;18.97;;;12.43;;
67272;SDS011;54190;49.770;9.250;2023-03-01T11:41:21;19.07;;;13.00;;
67272;SDS011;54190;49.770;9.250;2023-03-01T11:43:55;21.90;;;13.60;;
67272;SDS011;54190;49.770;9.250;2023-03-01T12:06:10;21.10;;;12.33;;
67272;SDS011;54190;49.770;9.250;2023-03-01T12:09:11;18.07;;;11.23;;
67272;SDS011;54190;49.770;9.250;2023-03-01T12:22:58;20.07;;;13.40;;
67272;SDS011;54190;49.770;9.250;2023-03-01T12:25:39;20.17;;;12.33;;
67272;SDS011;54190;49.770;9.250;2023-03-01T12:28:20;21.10;;;12.60;;
67272;SDS011;54190;49.770;9.250;2023-03-01T12:30:55;24.53;;;13.00;;
67272;SDS011;54190;49.770;9.250;2023-03-01T12:34:19;20.13;;;12.30;;
67272;SDS011;54190;49.770;9.250;2023-03-01T12:50:20;17.53;;;12.23;;
67272;SDS011;54190;49.770;9.250;2023-03-01T12:52:55;16.27;;;11.07;;
67272;SDS011;54190;49.770;9.250;2023-03-01T12:55:32;15.07;;;10.67;;
67272;SDS011;54190;49.770;9.250;2023-03-01T12:58:09;18.13;;;12.90;;
67272;SDS011;54190;49.770;9.250;2023-03-01T13:11:41;16.90;;;12.20;;
67272;SDS011;54190;49.770;9.250;2023-03-01T13:16:45;17.77;;;10.83;;
67272;SDS011;54190;49.770;9.250;2023-03-01T13:19:26;18.50;;;12.57;;
67272;SDS011;54190;49.770;9.250;2023-03-01T13:22:01;16.27;;;10.30;;
67272;SDS011;54190;49.770;9.250;2023-03-01T13:25:01;15.83;;;11.00;;
67272;SDS011;54190;49.770;9.250;2023-03-01T13:27:39;20.10;;;12.03;;
67272;SDS011;54190;49.770;9.250;2023-03-01T13:30:12;18.87;;;11.83;;
67272;SDS011;54190;49.770;9.250;2023-03-01T13:35:48;17.73;;;11.37;;
67272;SDS011;54190;49.770;9.250;2023-03-01T13:41:47;16.60;;;10.70;;
67272;SDS011;54190;49.770;9.250;2023-03-01T13:46:48;16.10;;;10.10;;
67272;SDS011;54190;49.770;9.250;2023-03-01T13:49:16;15.40;;;9.80;;
67272;SDS011;54190;49.770;9.250;2023-03-01T13:51:48;19.47;;;10.43;;
67272;SDS011;54190;49.770;9.250;2023-03-01T13:54:15;15.23;;;10.80;;
67272;SDS011;54190;49.770;9.250;2023-03-01T13:56:48;17.03;;;11.50;;
67272;SDS011;54190;49.770;9.250;2023-03-01T13:59:21;14.23;;;9.73;;
67272;SDS011;54190;49.770;9.250;2023-03-01T14:01:57;16.00;;;11.10;;
67272;SDS011;54190;49.770;9.250;2023-03-01T14:04:26;15.30;;;11.17;;
67272;SDS011;54190;49.770;9.250;2023-03-01T14:09:42;15.50;;;11.37;;
67272;SDS011;54190;49.770;9.250;2023-03-01T14:12:14;15.03;;;10.40;;
67272;SDS011;54190;49.770;9.250;2023-03-01T14:17:43;15.17;;;9.93;;
67272;SDS011;54190;49.770;9.250;2023-03-01T14:20:17;18.20;;;10.57;;
67272;SDS011;54190;49.770;9.250;2023-03-01T14:22:55;15.87;;;10.07;;
67272;SDS011;54190;49.770;9.250;2023-03-01T14:25:30;15.37;;;9.37;;
67272;SDS011;54190;49.770;9.250;2023-03-01T14:27:59;13.80;;;9.43;;
67272;SDS011;54190;49.770;9.250;2023-03-01T14:30:38;15.60;;;9.40;;
67272;SDS011;54190;49.770;9.250;2023-03-01T14:33:18;15.07;;;9.07;;
67272;SDS011;54190;49.770;9.250;2023-03-01T14:38:28;14.23;;;10.73;;
67272;SDS011;54190;49.770;9.250;2023-03-01T14:40:59;16.60;;;10.37;;
67272;SDS011;54190;49.770;9.250;2023-03-01T14:43:28;14.50;;;9.43;;
67272;SDS011;54190;49.770;9.250;2023-03-01T14:45:55;16.80;;;10.40;;
67272;SDS011;54190;49.770;9.250;2023-03-01T14:48:21;14.73;;;10.30;;
67272;SDS011;54190;49.770;9.250;2023-03-01T14:50:48;16.23;;;10.50;;
67272;SDS011;54190;49.770;9.250;2023-03-01T14:53:18;15.77;;;10.30;;
67272;SDS011;54190;49.770;9.250;2023-03-01T14:55:49;15.00;;;9.93;;
67272;SDS011;54190;49.770;9.250;2023-03-01T14:58:19;15.40;;;9.60;;
67272;SDS011;54190;49.770;9.250;2023-03-01T15:00:56;16.10;;;9.93;;
67272;SDS011;54190;49.770;9.250;2023-03-01T15:05:51;17.40;;;9.90;;
67272;SDS011;54190;49.770;9.250;2023-03-01T15:08:19;14.10;;;9.00;;
67272;SDS011;54190;49.770;9.250;2023-03-01T15:13:34;16.43;;;9.60;;
67272;SDS011;54190;49.770;9.250;2023-03-01T15:16:01;16.20;;;9.10;;
67272;SDS011;54190;49.770;9.250;2023-03-01T15:18:29;12.30;;;8.80;;
67272;SDS011;54190;49.770;9.250;2023-03-01T15:20:55;14.67;;;10.63;;
67272;SDS011;54190;49.770;9.250;2023-03-01T15:23:30;14.77;;;9.30;;
67272;SDS011;54190;49.770;9.250;2023-03-01T15:25:56;15.30;;;9.20;;
67272;SDS011;54190;49.770;9.250;2023-03-01T15:28:24;13.10;;;9.53;;
67272;SDS011;54190;49.770;9.250;2023-03-01T15:31:04;16.17;;;9.53;;
67272;SDS011;54190;49.770;9.250;2023-03-01T15:33:46;15.13;;;9.53;;
67272;SDS011;54190;49.770;9.250;2023-03-01T15:42:04;11.93;;;8.43;;
67272;SDS011;54190;49.770;9.250;2023-03-01T15:44:35;15.50;;;9.33;;
67272;SDS011;54190;49.770;9.250;2023-03-01T15:47:02;12.13;;;8.07;;
67272;SDS011;54190;49.770;9.250;2023-03-01T15:49:46;15.07;;;8.70;;
67272;SDS011;54190;49.770;9.250;2023-03-01T15:52:13;12.10;;;8.10;;
67272;SDS011;54190;49.770;9.250;2023-03-01T15:54:47;10.47;;;7.93;;
67272;SDS011;54190;49.770;9.250;2023-03-01T15:57:13;14.50;;;7.43;;
67272;SDS011;54190;49.770;9.250;2023-03-01T15:59:41;15.80;;;8.43;;
67272;SDS011;54190;49.770;9.250;2023-03-01T16:02:12;11.40;;;7.73;;
67272;SDS011;54190;49.770;9.250;2023-03-01T16:04:38;11.60;;;7.97;;
67272;SDS011;54190;49.770;9.250;2023-03-01T16:07:04;13.57;;;9.57;;
67272;SDS011;54190;49.770;9.250;2023-03-01T16:09:30;14.53;;;8.97;;
67272;SDS011;54190;49.770;9.250;2023-03-01T16:11:57;12.87;;;8.53;;
67272;SDS011;54190;49.770;9.250;2023-03-01T16:14:23;11.47;;;8.40;;
67272;SDS011;54190;49.770;9.250;2023-03-01T16:16:49;15.17;;;9.10;;
67272;SDS011;54190;49.770;9.250;2023-03-01T16:19:15;13.07;;;8.73;;
67272;SDS011;54190;49.770;9.250;2023-03-01T16:21:41;15.50;;;8.50;;
67272;SDS011;54190;49.770;9.250;2023-03-01T16:24:07;12.97;;;8.20;;
67272;SDS011;54190;49.770;9.250;2023-03-01T16:26:34;15.23;;;8.90;;
67272;SDS011;54190;49.770;9.250;2023-03-01T16:29:01;16.13;;;8.30;;
67272;SDS011;54190;49.770;9.250;2023-03-01T16:31:26;13.93;;;8.67;;
67272;SDS011;54190;49.770;9.250;2023-03-01T16:33:54;12.90;;;8.37;;